メインページ
METAR-TAF:

METAR-TAF

空港 :

グワダル, パキスタン

緯度: 25-13-59N, 経度: 062-19-46E, 海抜: 29m

METAR: 見つかりません

時間: 23:23 (18:23 UTC)

予報

当レポートは2時間23分前の16:00(UTC)に作成
予報は17日の 18時(UTC)から 18日の 18時(UTC)まで有効
北/北西の風 7kt
視程: 5000m
煙霧
18日の 00時(UTC)から 18日の 04時(UTC)まで一時的に
変向風 3kt
視程: 2000m
煙霧
18日の 04時(UTC)から 18日の 06時(UTC)まで徐々に
の風 10kt
視程: 6000m

TAF: OPGD 171600Z 1718/1818 34007KT 5000 HZ NSC TEMPO 1800/1804 VRB03KT 2000 HZ NSC BECMG 1804/1806 18010KT 6000 NSC

4,000以上の空港の気象観測と天気予報(METAR報とTAF報)

利用可能な観測所は地図上に黄色い丸と赤い丸で示す。

丸の上にカーソルを重ねると観測所名を参照できる。

次にクリックすると気象観測と天気予報を参照できる。

マップの切り替え:黒色「×」印の緑ボタンをクリックして拡大、「-」印の緑ボタンをクリックして縮小、緑色の三角印をクリックして隣りの地図に切り替え


METAR-TAF: